Time;durP1;ratioP1;P1;durP2;ratioP2;P2;SDS_P1;SDS_P2;PMS_P1;PMS_P2;Temp;Humidity;BMP_temperature;BMP_pressure;BME280_temperature;BME280_humidity;BME280_pressure;Samples;Min_cycle;Max_cycle;Signal;HPM_P1;HPM_P2
2022/01/14 00:00:31;;;;;;;72.43;15.50;;;;;;;;;;4995234;28;20506;-73
2022/01/14 00:02:58;;;;;;;49.97;13.07;;;;;;;;;;4997129;28;20519;-74
2022/01/14 00:05:25;;;;;;;91.23;15.07;;;;;;;;;;4991841;28;20981;-74
2022/01/14 00:07:54;;;;;;;75.17;13.70;;;;;;;;;;4996977;28;20468;-74
2022/01/14 00:10:21;;;;;;;65.67;14.23;;;;;;;;;;4995875;28;20471;-75
2022/01/14 00:12:53;;;;;;;47.33;12.67;;;;;;;;;;4999055;28;20228;-75
2022/01/14 00:15:25;;;;;;;58.37;12.77;;;;;;;;;;4998343;28;20479;-75
2022/01/14 00:17:52;;;;;;;33.90;11.63;;;;;;;;;;4998505;28;20464;-75
2022/01/14 00:20:20;;;;;;;46.07;12.00;;;;;;;;;;4994980;28;20573;-75
2022/01/14 00:22:47;;;;;;;33.53;12.70;;;;;;;;;;4996176;28;20582;-74
2022/01/14 00:33:30;;;;;;;36.03;12.53;;;;;;;;;;4998954;28;20892;-75
2022/01/14 00:35:57;;;;;;;51.50;13.20;;;;;;;;;;5000776;28;20452;-75
2022/01/14 00:38:24;;;;;;;60.70;12.53;;;;;;;;;;4999271;28;20559;-75
2022/01/14 00:40:53;;;;;;;82.87;14.30;;;;;;;;;;5000546;28;20452;-74
2022/01/14 00:43:20;;;;;;;52.67;13.50;;;;;;;;;;5000502;28;20475;-73
2022/01/14 00:45:47;;;;;;;45.40;13.00;;;;;;;;;;5001631;28;20497;-74
2022/01/14 00:48:14;;;;;;;53.73;13.63;;;;;;;;;;4997641;28;20472;-74
2022/01/14 00:50:44;;;;;;;33.97;13.17;;;;;;;;;;4999253;28;20991;-74
2022/01/14 00:53:11;;;;;;;44.90;12.70;;;;;;;;;;4995228;28;20484;-74
2022/01/14 00:55:50;;;;;;;41.33;13.90;;;;;;;;;;4998687;28;20503;-74
2022/01/14 01:01:03;;;;;;;34.13;12.03;;;;;;;;;;4999101;28;20443;-74
2022/01/14 01:03:32;;;;;;;34.83;12.50;;;;;;;;;;4996438;28;20838;-74
2022/01/14 01:05:59;;;;;;;51.17;12.77;;;;;;;;;;4996593;28;20882;-73
2022/01/14 01:08:28;;;;;;;47.53;13.77;;;;;;;;;;4998147;28;20884;-74
2022/01/14 01:10:55;;;;;;;41.07;12.50;;;;;;;;;;4996622;28;21014;-74
2022/01/14 01:13:28;;;;;;;59.23;13.23;;;;;;;;;;4999626;28;20584;-75
2022/01/14 01:15:56;;;;;;;42.17;13.67;;;;;;;;;;4996189;28;20447;-74
2022/01/14 01:18:23;;;;;;;40.43;13.57;;;;;;;;;;5000172;28;20547;-75
2022/01/14 01:20:52;;;;;;;44.20;14.60;;;;;;;;;;5000086;28;20449;-75
2022/01/14 01:23:19;;;;;;;41.83;14.33;;;;;;;;;;4999728;28;20634;-75
2022/01/14 01:25:52;;;;;;;50.17;14.73;;;;;;;;;;5000351;28;20542;-75
2022/01/14 01:28:20;;;;;;;41.23;14.30;;;;;;;;;;5001793;28;20536;-75
2022/01/14 01:30:51;;;;;;;41.23;14.33;;;;;;;;;;5005304;28;20492;-75
2022/01/14 01:33:19;;;;;;;43.13;15.23;;;;;;;;;;4997376;28;20971;-75
2022/01/14 01:35:47;;;;;;;47.93;15.47;;;;;;;;;;5002068;28;20934;-75
2022/01/14 01:38:17;;;;;;;43.50;14.97;;;;;;;;;;4998254;28;20468;-74
2022/01/14 01:40:45;;;;;;;43.53;15.20;;;;;;;;;;4993725;28;20522;-75
2022/01/14 01:43:13;;;;;;;43.33;14.63;;;;;;;;;;5000787;28;20481;-75
2022/01/14 01:45:40;;;;;;;40.40;13.73;;;;;;;;;;4996613;28;20491;-74
2022/01/14 01:48:08;;;;;;;40.90;14.60;;;;;;;;;;4997247;28;20518;-75
2022/01/14 01:50:37;;;;;;;44.40;15.40;;;;;;;;;;4997187;28;20463;-74
2022/01/14 01:53:06;;;;;;;52.80;16.53;;;;;;;;;;4999287;28;20491;-73
2022/01/14 01:55:33;;;;;;;44.60;15.00;;;;;;;;;;5003215;28;20456;-75
2022/01/14 01:58:01;;;;;;;49.30;15.77;;;;;;;;;;4996707;28;20466;-75
2022/01/14 02:00:28;;;;;;;50.23;15.33;;;;;;;;;;5000240;28;20525;-74
2022/01/14 02:02:56;;;;;;;42.63;15.10;;;;;;;;;;4995416;28;20569;-75
2022/01/14 02:05:25;;;;;;;39.63;14.90;;;;;;;;;;4996655;28;20460;-75
2022/01/14 02:07:52;;;;;;;38.67;14.60;;;;;;;;;;4996278;28;20502;-75
2022/01/14 02:10:21;;;;;;;48.77;15.73;;;;;;;;;;4998432;28;20879;-75
2022/01/14 02:12:51;;;;;;;39.87;15.33;;;;;;;;;;5000401;28;20523;-75
2022/01/14 02:15:42;;;;;;;44.40;15.50;;;;;;;;;;5000067;28;20513;-75
2022/01/14 02:23:51;;;;;;;91.00;15.27;;;;;;;;;;4999432;28;20481;-75
2022/01/14 02:26:19;;;;;;;78.10;15.10;;;;;;;;;;4996875;28;20847;-75
2022/01/14 02:28:47;;;;;;;78.80;14.20;;;;;;;;;;4999026;28;20457;-75
2022/01/14 02:31:15;;;;;;;86.97;15.00;;;;;;;;;;4996650;28;20460;-75
2022/01/14 02:33:42;;;;;;;83.83;14.80;;;;;;;;;;4999288;28;20466;-74
2022/01/14 02:36:11;;;;;;;39.10;13.47;;;;;;;;;;4998175;28;20955;-75
2022/01/14 02:38:38;;;;;;;66.60;13.87;;;;;;;;;;5001462;28;20582;-73
2022/01/14 02:41:06;;;;;;;38.93;13.80;;;;;;;;;;5001713;28;20823;-75
2022/01/14 02:43:34;;;;;;;69.50;13.80;;;;;;;;;;4998074;28;20973;-75
2022/01/14 02:46:03;;;;;;;43.70;12.70;;;;;;;;;;4996914;28;20452;-74
2022/01/14 02:48:31;;;;;;;64.27;12.83;;;;;;;;;;4995928;28;20467;-75
2022/01/14 02:51:01;;;;;;;42.27;12.13;;;;;;;;;;4995266;28;20542;-74
2022/01/14 02:53:42;;;;;;;41.33;12.57;;;;;;;;;;4993194;28;20494;-73
2022/01/14 02:56:10;;;;;;;30.17;11.43;;;;;;;;;;4995439;28;20839;-74
2022/01/14 02:58:38;;;;;;;58.80;12.87;;;;;;;;;;5000110;28;20496;-74
2022/01/14 03:01:09;;;;;;;42.53;11.87;;;;;;;;;;4995794;28;20471;-75
2022/01/14 03:03:36;;;;;;;24.07;11.63;;;;;;;;;;4995165;28;20487;-75
2022/01/14 03:06:04;;;;;;;29.47;10.30;;;;;;;;;;4993784;28;20495;-75
2022/01/14 03:08:33;;;;;;;32.20;11.70;;;;;;;;;;4995692;28;20582;-75
2022/01/14 03:11:02;;;;;;;40.03;11.53;;;;;;;;;;4993946;28;20474;-74
2022/01/14 03:13:29;;;;;;;56.70;12.73;;;;;;;;;;4997088;28;21004;-74
2022/01/14 03:15:56;;;;;;;72.43;13.60;;;;;;;;;;4993294;28;20464;-74
2022/01/14 03:18:32;;;;;;;67.50;11.97;;;;;;;;;;4999693;28;20531;-74
2022/01/14 03:21:09;;;;;;;59.20;12.50;;;;;;;;;;4996691;28;20927;-74
2022/01/14 03:23:44;;;;;;;45.03;12.70;;;;;;;;;;4997688;28;20486;-74
2022/01/14 03:26:11;;;;;;;75.53;15.33;;;;;;;;;;4997819;28;20941;-75
2022/01/14 03:28:39;;;;;;;66.97;13.10;;;;;;;;;;4998025;28;20465;-74
2022/01/14 03:31:07;;;;;;;31.00;11.70;;;;;;;;;;4994963;28;20448;-74
2022/01/14 03:33:34;;;;;;;38.87;12.40;;;;;;;;;;4995370;28;20496;-74
2022/01/14 03:36:02;;;;;;;60.77;12.40;;;;;;;;;;4995656;28;20455;-75
2022/01/14 03:38:29;;;;;;;40.30;12.77;;;;;;;;;;4996228;28;20470;-74
2022/01/14 03:40:58;;;;;;;33.60;12.00;;;;;;;;;;5000548;28;20843;-74
2022/01/14 03:43:25;;;;;;;37.33;12.77;;;;;;;;;;4998352;28;21057;-73
2022/01/14 03:45:52;;;;;;;47.23;13.57;;;;;;;;;;4994372;28;20908;-74
2022/01/14 03:48:19;;;;;;;41.97;13.10;;;;;;;;;;4995750;28;20448;-74
2022/01/14 03:50:47;;;;;;;44.07;13.20;;;;;;;;;;4995991;28;20550;-75
2022/01/14 03:53:14;;;;;;;43.33;12.40;;;;;;;;;;4993610;28;20575;-74
2022/01/14 03:55:42;;;;;;;34.83;12.53;;;;;;;;;;4994413;28;20862;-73
2022/01/14 03:58:11;;;;;;;47.67;13.40;;;;;;;;;;4997470;28;20535;-75
2022/01/14 04:00:39;;;;;;;35.83;12.70;;;;;;;;;;4994904;28;20463;-74
2022/01/14 04:03:08;;;;;;;59.37;14.40;;;;;;;;;;4995011;28;20479;-75
2022/01/14 04:05:35;;;;;;;47.23;13.40;;;;;;;;;;4996504;28;20543;-75
2022/01/14 04:08:02;;;;;;;46.57;13.47;;;;;;;;;;4995322;28;21789;-74
2022/01/14 04:10:30;;;;;;;44.73;12.13;;;;;;;;;;4998626;28;20923;-75
2022/01/14 04:13:03;;;;;;;52.77;13.37;;;;;;;;;;4995761;28;20491;-75
2022/01/14 04:15:42;;;;;;;99.37;14.43;;;;;;;;;;4998354;28;20488;-74
2022/01/14 04:18:11;;;;;;;32.87;11.97;;;;;;;;;;4996689;28;20542;-74
2022/01/14 04:20:39;;;;;;;54.90;13.63;;;;;;;;;;4996616;28;20552;-75
2022/01/14 04:23:06;;;;;;;50.67;13.50;;;;;;;;;;4998572;28;20490;-75
2022/01/14 04:25:34;;;;;;;43.93;12.47;;;;;;;;;;4999326;28;20615;-75
2022/01/14 04:28:03;;;;;;;39.43;13.77;;;;;;;;;;4995923;28;20514;-74
2022/01/14 04:30:30;;;;;;;44.40;12.97;;;;;;;;;;4995701;28;20452;-75
2022/01/14 04:32:58;;;;;;;37.30;12.53;;;;;;;;;;4995199;28;20583;-74
2022/01/14 04:35:26;;;;;;;95.40;14.23;;;;;;;;;;4995756;28;20967;-75
2022/01/14 04:37:53;;;;;;;65.07;13.83;;;;;;;;;;4995175;28;20563;-75
2022/01/14 04:40:20;;;;;;;52.87;13.80;;;;;;;;;;4994226;28;20933;-75
2022/01/14 04:42:48;;;;;;;42.53;13.23;;;;;;;;;;4992627;28;20474;-75
2022/01/14 04:45:28;;;;;;;107.23;16.73;;;;;;;;;;4997676;28;20467;-74
2022/01/14 04:47:56;;;;;;;42.20;13.43;;;;;;;;;;4996258;28;20563;-73
2022/01/14 04:50:25;;;;;;;33.77;13.20;;;;;;;;;;4996139;28;20554;-74
2022/01/14 04:52:53;;;;;;;53.50;16.27;;;;;;;;;;4999944;28;20941;-75
2022/01/14 04:55:21;;;;;;;36.23;13.33;;;;;;;;;;4994833;28;20464;-74
2022/01/14 04:57:48;;;;;;;39.67;13.57;;;;;;;;;;4991309;28;20558;-75
2022/01/14 05:00:16;;;;;;;37.13;12.77;;;;;;;;;;4998333;28;20459;-75
2022/01/14 05:02:43;;;;;;;33.47;13.47;;;;;;;;;;5000736;28;20489;-75
2022/01/14 05:05:11;;;;;;;40.03;13.20;;;;;;;;;;4995490;28;20463;-74
2022/01/14 05:07:42;;;;;;;36.67;13.23;;;;;;;;;;4997262;28;20459;-75
2022/01/14 05:10:20;;;;;;;31.37;12.90;;;;;;;;;;4994453;28;20486;-74
2022/01/14 05:12:48;;;;;;;32.73;12.10;;;;;;;;;;4992686;28;20969;-75
2022/01/14 05:15:15;;;;;;;36.00;12.73;;;;;;;;;;4999244;28;20494;-75
2022/01/14 05:17:43;;;;;;;33.57;12.70;;;;;;;;;;4996885;28;21032;-75
2022/01/14 05:20:10;;;;;;;33.30;12.10;;;;;;;;;;5000883;28;20495;-74
2022/01/14 05:22:38;;;;;;;31.53;11.80;;;;;;;;;;5000430;28;20511;-75
2022/01/14 05:25:07;;;;;;;30.73;11.80;;;;;;;;;;4997559;28;20467;-75
2022/01/14 05:27:35;;;;;;;32.47;11.90;;;;;;;;;;4996401;28;20478;-75
2022/01/14 05:30:02;;;;;;;29.67;11.57;;;;;;;;;;4997350;28;20464;-75
2022/01/14 05:32:29;;;;;;;33.10;12.93;;;;;;;;;;4992107;28;20501;-75
2022/01/14 05:34:56;;;;;;;32.20;11.40;;;;;;;;;;4995507;28;20550;-75
2022/01/14 05:37:23;;;;;;;32.17;11.50;;;;;;;;;;4997440;28;20469;-74
2022/01/14 05:39:51;;;;;;;36.27;12.23;;;;;;;;;;4996347;28;20559;-74
2022/01/14 05:42:19;;;;;;;36.57;11.63;;;;;;;;;;4995518;28;20823;-74
2022/01/14 05:44:46;;;;;;;35.10;11.83;;;;;;;;;;4994501;28;20659;-75
2022/01/14 05:47:14;;;;;;;33.00;12.10;;;;;;;;;;4998489;28;22223;-75
2022/01/14 05:49:41;;;;;;;31.47;12.33;;;;;;;;;;4995326;28;20555;-73
2022/01/14 05:52:08;;;;;;;35.73;11.67;;;;;;;;;;4997527;28;21000;-75
2022/01/14 05:54:35;;;;;;;29.60;10.90;;;;;;;;;;4996304;28;20824;-74
2022/01/14 05:57:02;;;;;;;33.33;11.57;;;;;;;;;;4997773;28;20464;-74
2022/01/14 05:59:31;;;;;;;32.93;11.70;;;;;;;;;;4998264;28;20805;-75
2022/01/14 06:01:58;;;;;;;30.73;11.87;;;;;;;;;;4998350;28;20500;-75
2022/01/14 06:04:25;;;;;;;32.17;12.43;;;;;;;;;;4999451;28;20451;-74
2022/01/14 06:06:52;;;;;;;34.50;12.00;;;;;;;;;;4997272;28;20992;-75
2022/01/14 06:09:20;;;;;;;37.83;11.63;;;;;;;;;;4999290;28;20476;-74
2022/01/14 06:11:47;;;;;;;36.10;13.23;;;;;;;;;;4997570;28;20468;-74
2022/01/14 06:14:14;;;;;;;27.17;11.47;;;;;;;;;;4996510;28;20497;-75
2022/01/14 06:16:43;;;;;;;33.83;12.70;;;;;;;;;;4994698;28;20555;-75
2022/01/14 06:19:10;;;;;;;35.33;12.90;;;;;;;;;;4997202;28;20899;-75
2022/01/14 06:21:37;;;;;;;35.17;12.63;;;;;;;;;;4991858;28;20531;-75
2022/01/14 06:24:05;;;;;;;33.10;12.30;;;;;;;;;;4993181;28;20747;-74
2022/01/14 06:26:32;;;;;;;29.30;11.77;;;;;;;;;;4995690;28;20556;-75
2022/01/14 06:28:59;;;;;;;32.90;12.17;;;;;;;;;;4994116;28;20464;-75
2022/01/14 06:31:26;;;;;;;31.90;11.13;;;;;;;;;;4994694;28;20468;-73
2022/01/14 06:33:55;;;;;;;27.37;10.57;;;;;;;;;;4993738;28;20486;-74
2022/01/14 06:36:22;;;;;;;29.33;11.43;;;;;;;;;;4994244;28;20550;-75
2022/01/14 06:38:50;;;;;;;30.17;10.60;;;;;;;;;;4995504;28;21007;-75
2022/01/14 06:41:17;;;;;;;37.33;11.33;;;;;;;;;;4997260;28;20591;-75
2022/01/14 06:43:44;;;;;;;31.73;11.37;;;;;;;;;;4997239;28;21069;-75
2022/01/14 06:46:12;;;;;;;27.93;11.33;;;;;;;;;;4995919;28;20471;-75
2022/01/14 06:48:39;;;;;;;29.83;11.20;;;;;;;;;;4995674;28;20843;-75
2022/01/14 06:51:12;;;;;;;32.47;10.97;;;;;;;;;;4997815;28;20974;-75
2022/01/14 06:53:39;;;;;;;30.83;10.97;;;;;;;;;;4997508;28;21119;-74
2022/01/14 06:56:07;;;;;;;31.40;11.47;;;;;;;;;;4995313;28;20558;-75
2022/01/14 06:58:34;;;;;;;30.47;11.63;;;;;;;;;;4995662;28;21046;-75
2022/01/14 07:01:01;;;;;;;26.03;9.70;;;;;;;;;;4996673;28;20551;-73
2022/01/14 07:03:28;;;;;;;30.07;11.47;;;;;;;;;;4996623;28;20640;-73
2022/01/14 07:05:55;;;;;;;26.80;9.93;;;;;;;;;;4998571;28;20982;-74
2022/01/14 07:08:24;;;;;;;30.60;10.93;;;;;;;;;;4996264;28;20455;-74
2022/01/14 07:10:52;;;;;;;26.60;9.70;;;;;;;;;;4995933;28;20483;-74
2022/01/14 07:13:19;;;;;;;28.87;11.10;;;;;;;;;;4992583;28;21007;-74
2022/01/14 07:15:46;;;;;;;31.60;11.13;;;;;;;;;;4994354;28;21103;-75
2022/01/14 07:18:15;;;;;;;31.20;9.47;;;;;;;;;;4996326;28;20483;-74
2022/01/14 07:20:43;;;;;;;33.63;12.00;;;;;;;;;;4992436;28;20464;-75
2022/01/14 07:23:10;;;;;;;31.57;11.87;;;;;;;;;;4992873;28;20586;-75
2022/01/14 07:25:39;;;;;;;31.93;11.50;;;;;;;;;;4995897;28;20550;-75
2022/01/14 07:28:06;;;;;;;32.63;11.90;;;;;;;;;;4996015;28;20829;-75
2022/01/14 07:30:36;;;;;;;29.80;10.67;;;;;;;;;;4994747;28;20468;-75
2022/01/14 07:33:04;;;;;;;29.23;10.73;;;;;;;;;;5000198;28;20487;-74
2022/01/14 07:35:31;;;;;;;28.50;11.10;;;;;;;;;;4994248;28;20573;-75
2022/01/14 07:37:58;;;;;;;29.67;11.07;;;;;;;;;;4994675;28;20502;-75
2022/01/14 07:40:26;;;;;;;29.70;11.30;;;;;;;;;;4994841;28;20475;-75
2022/01/14 07:42:55;;;;;;;25.53;10.57;;;;;;;;;;4995038;28;21063;-75
2022/01/14 07:45:23;;;;;;;32.73;12.60;;;;;;;;;;4993837;28;20472;-72
2022/01/14 07:47:50;;;;;;;30.47;11.63;;;;;;;;;;4996080;28;20463;-75
2022/01/14 07:50:17;;;;;;;30.53;11.07;;;;;;;;;;4994423;28;20858;-74
2022/01/14 07:52:44;;;;;;;40.90;12.33;;;;;;;;;;4992911;28;20622;-75
2022/01/14 07:55:11;;;;;;;31.03;11.63;;;;;;;;;;4995983;28;20569;-75
2022/01/14 07:57:39;;;;;;;34.70;12.87;;;;;;;;;;4996380;28;20932;-75
2022/01/14 08:00:09;;;;;;;33.70;14.30;;;;;;;;;;4997250;28;20473;-73
2022/01/14 08:02:37;;;;;;;39.70;13.83;;;;;;;;;;4995984;28;20487;-74
2022/01/14 08:05:04;;;;;;;39.73;14.07;;;;;;;;;;4995062;28;20980;-74
2022/01/14 08:07:33;;;;;;;34.73;13.53;;;;;;;;;;4993727;28;20463;-74
2022/01/14 08:10:01;;;;;;;31.07;12.33;;;;;;;;;;4992976;28;20904;-75
2022/01/14 08:12:28;;;;;;;35.73;13.17;;;;;;;;;;4996153;28;20483;-75
2022/01/14 08:14:57;;;;;;;40.33;14.97;;;;;;;;;;4995892;28;20483;-75
2022/01/14 08:17:25;;;;;;;40.90;15.53;;;;;;;;;;4998850;28;20475;-75
2022/01/14 08:19:53;;;;;;;37.37;14.80;;;;;;;;;;4998416;28;20472;-75
2022/01/14 08:22:20;;;;;;;42.73;15.83;;;;;;;;;;4993320;28;20591;-74
2022/01/14 08:24:47;;;;;;;43.23;16.07;;;;;;;;;;4991472;28;20464;-75
2022/01/14 08:27:14;;;;;;;46.43;17.60;;;;;;;;;;4992751;28;20487;-75
2022/01/14 08:29:41;;;;;;;45.43;17.57;;;;;;;;;;4995147;28;21056;-75
2022/01/14 08:32:08;;;;;;;39.37;14.20;;;;;;;;;;4995472;28;20558;-75
2022/01/14 08:34:37;;;;;;;37.27;14.10;;;;;;;;;;4992589;28;21060;-75
2022/01/14 08:37:04;;;;;;;39.10;15.57;;;;;;;;;;4994318;28;21018;-75
2022/01/14 08:39:31;;;;;;;37.43;14.33;;;;;;;;;;4996183;28;20931;-74
2022/01/14 08:41:59;;;;;;;43.73;16.27;;;;;;;;;;4994568;28;20925;-74
2022/01/14 08:44:26;;;;;;;36.10;14.67;;;;;;;;;;4994299;28;20495;-74
2022/01/14 08:46:55;;;;;;;39.57;15.93;;;;;;;;;;4996777;28;20471;-74
2022/01/14 08:49:22;;;;;;;47.00;15.63;;;;;;;;;;4996946;28;20475;-74
2022/01/14 08:51:51;;;;;;;39.13;15.80;;;;;;;;;;4997224;28;20474;-75
2022/01/14 08:54:18;;;;;;;46.43;15.57;;;;;;;;;;4998380;28;20525;-75
2022/01/14 08:56:45;;;;;;;35.20;13.97;;;;;;;;;;5001019;28;20466;-74
2022/01/14 08:59:12;;;;;;;36.47;13.97;;;;;;;;;;4999256;28;20485;-74
2022/01/14 09:01:42;;;;;;;29.37;13.60;;;;;;;;;;5003492;28;20473;-74
2022/01/14 09:04:09;;;;;;;34.43;14.70;;;;;;;;;;4998081;28;20513;-75
2022/01/14 09:06:36;;;;;;;34.00;14.20;;;;;;;;;;4996950;28;20478;-75
2022/01/14 09:09:06;;;;;;;36.93;13.63;;;;;;;;;;4997854;28;21220;-75
2022/01/14 09:11:33;;;;;;;36.07;14.43;;;;;;;;;;4993669;28;20459;-75
2022/01/14 09:14:01;;;;;;;37.00;14.30;;;;;;;;;;4999175;28;20479;-75
2022/01/14 09:16:28;;;;;;;35.57;14.10;;;;;;;;;;4999501;28;20491;-74
2022/01/14 09:18:55;;;;;;;36.13;14.83;;;;;;;;;;5003788;28;20486;-75
2022/01/14 09:21:22;;;;;;;37.53;14.27;;;;;;;;;;4996222;28;20458;-75
2022/01/14 09:23:52;;;;;;;36.90;14.10;;;;;;;;;;4997284;28;20523;-75
2022/01/14 09:26:21;;;;;;;57.00;24.20;;;;;;;;;;5004755;28;20975;-75
2022/01/14 09:28:49;;;;;;;38.07;14.83;;;;;;;;;;4999106;28;20464;-74
2022/01/14 09:31:17;;;;;;;51.73;23.87;;;;;;;;;;5001544;28;20593;-74
2022/01/14 09:33:44;;;;;;;44.17;17.43;;;;;;;;;;4997950;28;20497;-74
2022/01/14 09:36:12;;;;;;;31.17;11.93;;;;;;;;;;4999059;28;20829;-74
2022/01/14 09:38:39;;;;;;;31.23;12.77;;;;;;;;;;4998216;28;20554;-74
2022/01/14 09:41:07;;;;;;;31.10;12.87;;;;;;;;;;4997404;28;21039;-76
2022/01/14 09:43:39;;;;;;;33.87;13.27;;;;;;;;;;4998782;28;20506;-75
2022/01/14 09:46:07;;;;;;;36.47;13.90;;;;;;;;;;5001513;28;20819;-73
2022/01/14 09:48:34;;;;;;;28.73;12.80;;;;;;;;;;4996256;28;20759;-73
2022/01/14 09:51:01;;;;;;;31.50;12.70;;;;;;;;;;4998070;28;20464;-74
2022/01/14 09:53:29;;;;;;;31.13;12.97;;;;;;;;;;4994467;28;20494;-79
2022/01/14 09:55:57;;;;;;;33.93;12.63;;;;;;;;;;4997877;28;20558;-79
2022/01/14 09:58:24;;;;;;;31.33;13.23;;;;;;;;;;4993804;28;20562;-79
2022/01/14 10:01:06;;;;;;;30.27;13.07;;;;;;;;;;4998742;28;20894;-79
2022/01/14 10:03:33;;;;;;;40.43;15.27;;;;;;;;;;4998161;28;20474;-80
2022/01/14 10:06:00;;;;;;;44.50;17.57;;;;;;;;;;4999476;28;20456;-79
2022/01/14 10:08:29;;;;;;;40.43;16.03;;;;;;;;;;5001447;28;20491;-79
2022/01/14 10:10:59;;;;;;;78.20;28.27;;;;;;;;;;5000991;28;21019;-80
2022/01/14 10:13:28;;;;;;;89.83;33.10;;;;;;;;;;4998460;28;20511;-79
2022/01/14 10:16:01;;;;;;;92.80;32.63;;;;;;;;;;4998545;28;20558;-79
2022/01/14 10:18:29;;;;;;;56.57;21.87;;;;;;;;;;5002102;28;20554;-79
2022/01/14 10:21:01;;;;;;;49.10;18.93;;;;;;;;;;5002254;28;20446;-79
2022/01/14 10:23:39;;;;;;;39.30;15.73;;;;;;;;;;5000520;28;20494;-79
2022/01/14 10:26:06;;;;;;;32.60;13.77;;;;;;;;;;4999488;28;20962;-79
2022/01/14 10:28:34;;;;;;;34.17;15.07;;;;;;;;;;4995122;28;20958;-79
2022/01/14 10:31:02;;;;;;;45.60;17.43;;;;;;;;;;4994557;28;20546;-79
2022/01/14 10:33:31;;;;;;;51.17;19.43;;;;;;;;;;4996450;28;20475;-79
2022/01/14 10:35:58;;;;;;;67.17;24.17;;;;;;;;;;4997450;28;21006;-79
2022/01/14 10:38:26;;;;;;;49.03;17.20;;;;;;;;;;5000602;28;20906;-79
2022/01/14 10:40:54;;;;;;;45.20;18.87;;;;;;;;;;4996409;28;20275;-79
2022/01/14 10:43:23;;;;;;;48.20;18.63;;;;;;;;;;4996114;28;20486;-79
2022/01/14 10:45:50;;;;;;;41.20;15.93;;;;;;;;;;4997402;28;20240;-79
2022/01/14 10:48:28;;;;;;;36.47;15.43;;;;;;;;;;4993992;28;20460;-77
2022/01/14 10:50:57;;;;;;;32.43;14.00;;;;;;;;;;4992370;28;20653;-78
2022/01/14 10:53:25;;;;;;;35.27;15.67;;;;;;;;;;4998527;28;20251;-78
2022/01/14 10:55:54;;;;;;;40.23;15.83;;;;;;;;;;5000544;28;20311;-79
2022/01/14 10:58:25;;;;;;;36.90;15.40;;;;;;;;;;4997148;28;20663;-78
2022/01/14 11:00:56;;;;;;;37.50;16.37;;;;;;;;;;4995533;28;20854;-78
2022/01/14 11:03:34;;;;;;;88.97;32.53;;;;;;;;;;4994843;28;20321;-78
2022/01/14 11:06:15;;;;;;;46.03;19.07;;;;;;;;;;4999752;28;20682;-79
2022/01/14 11:08:43;;;;;;;63.60;24.60;;;;;;;;;;4995033;28;20205;-79
2022/01/14 11:11:10;;;;;;;63.87;24.10;;;;;;;;;;5000084;28;20205;-79
2022/01/14 11:13:37;;;;;;;42.23;17.27;;;;;;;;;;4995108;28;20224;-79
2022/01/14 11:16:05;;;;;;;37.90;16.77;;;;;;;;;;4998732;28;20783;-79
2022/01/14 11:18:33;;;;;;;34.67;15.80;;;;;;;;;;4996206;28;20263;-79
2022/01/14 11:23:45;;;;;;;38.70;15.90;;;;;;;;;;5001183;28;20335;-79
2022/01/14 11:26:16;;;;;;;35.10;15.77;;;;;;;;;;4997982;28;20312;-79
2022/01/14 11:28:44;;;;;;;32.93;14.33;;;;;;;;;;4999029;28;20208;-78
2022/01/14 11:31:27;;;;;;;35.90;15.83;;;;;;;;;;4998784;28;20208;-79
2022/01/14 11:33:57;;;;;;;33.20;16.53;;;;;;;;;;5003419;28;20229;-78
2022/01/14 11:36:24;;;;;;;42.40;18.40;;;;;;;;;;4999836;28;20204;-78
2022/01/14 11:38:51;;;;;;;42.53;17.13;;;;;;;;;;5002933;28;20266;-79
2022/01/14 11:41:21;;;;;;;38.83;16.47;;;;;;;;;;5001072;28;20241;-78
2022/01/14 11:43:50;;;;;;;44.23;17.40;;;;;;;;;;5003207;28;20271;-79
2022/01/14 11:46:37;;;;;;;34.50;16.07;;;;;;;;;;4996199;28;20211;-79
2022/01/14 11:49:26;;;;;;;35.83;16.57;;;;;;;;;;4995116;28;20292;-79
2022/01/14 11:51:57;;;;;;;33.13;14.97;;;;;;;;;;5000415;28;20271;-79
2022/01/14 11:54:37;;;;;;;31.43;15.43;;;;;;;;;;4994431;28;20327;-79
2022/01/14 11:57:05;;;;;;;32.77;15.00;;;;;;;;;;4999293;28;20240;-79
2022/01/14 11:59:41;;;;;;;39.53;14.47;;;;;;;;;;4997458;28;20213;-79
2022/01/14 12:02:30;;;;;;;38.93;14.83;;;;;;;;;;4996526;28;20667;-79
2022/01/14 12:05:13;;;;;;;36.03;14.40;;;;;;;;;;4994674;28;20204;-79
2022/01/14 12:07:59;;;;;;;34.87;13.97;;;;;;;;;;4998055;28;20216;-78
2022/01/14 12:10:29;;;;;;;28.03;11.40;;;;;;;;;;4998968;28;20299;-78
2022/01/14 12:13:18;;;;;;;26.03;11.60;;;;;;;;;;4998451;28;20240;-78
2022/01/14 12:15:47;;;;;;;24.43;10.10;;;;;;;;;;4998232;28;20220;-78
2022/01/14 12:18:14;;;;;;;26.07;10.33;;;;;;;;;;4997128;28;20208;-78
2022/01/14 12:20:50;;;;;;;23.27;10.07;;;;;;;;;;4999570;28;20213;-78
2022/01/14 12:23:19;;;;;;;25.40;9.70;;;;;;;;;;4994923;28;20227;-78
2022/01/14 12:25:47;;;;;;;23.67;9.60;;;;;;;;;;4996644;28;20211;-78
2022/01/14 12:28:18;;;;;;;25.93;10.50;;;;;;;;;;5003549;28;20247;-78
2022/01/14 12:30:57;;;;;;;31.27;12.40;;;;;;;;;;4993390;28;20312;-78
2022/01/14 12:33:39;;;;;;;28.93;11.53;;;;;;;;;;4999176;28;20576;-78
2022/01/14 12:36:12;;;;;;;28.93;12.97;;;;;;;;;;4996328;28;20248;-78
2022/01/14 12:38:40;;;;;;;27.20;12.37;;;;;;;;;;4996818;28;20212;-78
2022/01/14 12:41:14;;;;;;;37.53;13.03;;;;;;;;;;4999366;28;20295;-78
2022/01/14 12:43:48;;;;;;;30.20;13.33;;;;;;;;;;4995065;28;20228;-78
2022/01/14 12:46:34;;;;;;;30.27;13.50;;;;;;;;;;4998982;28;20204;-78
2022/01/14 12:49:03;;;;;;;32.07;13.23;;;;;;;;;;5003791;28;20208;-78
2022/01/14 12:51:32;;;;;;;37.17;13.77;;;;;;;;;;4994943;28;20205;-77
2022/01/14 12:53:59;;;;;;;29.70;12.60;;;;;;;;;;4993645;28;20283;-77
2022/01/14 12:56:27;;;;;;;30.53;13.00;;;;;;;;;;4996887;28;20629;-78
2022/01/14 12:58:56;;;;;;;33.77;13.03;;;;;;;;;;5000824;28;20213;-77
2022/01/14 13:01:27;;;;;;;35.57;13.63;;;;;;;;;;5000766;28;20287;-78
2022/01/14 13:03:55;;;;;;;33.87;14.30;;;;;;;;;;4996607;28;20225;-78
2022/01/14 13:06:22;;;;;;;29.20;12.90;;;;;;;;;;4997066;28;20205;-78
2022/01/14 13:09:00;;;;;;;36.23;13.13;;;;;;;;;;4995197;28;20236;-78
2022/01/14 13:11:27;;;;;;;31.73;12.87;;;;;;;;;;5000486;28;20209;-78
2022/01/14 13:14:02;;;;;;;29.33;13.67;;;;;;;;;;4996141;28;20243;-78
2022/01/14 13:16:43;;;;;;;28.07;13.13;;;;;;;;;;5001652;28;20224;-78
2022/01/14 13:19:20;;;;;;;33.53;13.33;;;;;;;;;;4994192;28;20242;-78
2022/01/14 13:21:47;;;;;;;32.37;12.73;;;;;;;;;;4992850;28;20291;-78
2022/01/14 13:24:20;;;;;;;27.50;12.27;;;;;;;;;;4993889;28;20220;-79
2022/01/14 13:26:58;;;;;;;30.20;12.63;;;;;;;;;;4994985;28;20232;-78
2022/01/14 13:29:25;;;;;;;38.63;14.43;;;;;;;;;;4993188;28;20549;-79
2022/01/14 13:31:52;;;;;;;35.70;14.70;;;;;;;;;;4997418;28;20236;-79
2022/01/14 13:34:21;;;;;;;36.97;14.37;;;;;;;;;;4992483;28;20255;-78
2022/01/14 13:36:48;;;;;;;37.57;14.33;;;;;;;;;;4992892;28;20221;-79
2022/01/14 13:39:15;;;;;;;36.33;13.63;;;;;;;;;;4999453;28;20209;-79
2022/01/14 13:41:44;;;;;;;41.00;15.03;;;;;;;;;;4999710;28;20626;-79
2022/01/14 13:44:18;;;;;;;40.20;13.10;;;;;;;;;;4998862;28;20216;-78
2022/01/14 13:46:50;;;;;;;41.90;14.50;;;;;;;;;;4998573;28;20219;-78
2022/01/14 13:49:21;;;;;;;39.53;14.60;;;;;;;;;;4997379;28;20209;-78
2022/01/14 13:51:48;;;;;;;36.43;14.70;;;;;;;;;;4996118;28;20231;-78
2022/01/14 13:54:18;;;;;;;40.17;14.50;;;;;;;;;;4997827;28;20193;-78
2022/01/14 13:56:46;;;;;;;35.97;13.70;;;;;;;;;;5000515;28;20315;-78
2022/01/14 13:59:20;;;;;;;38.23;14.03;;;;;;;;;;4995587;28;20598;-78
2022/01/14 14:01:52;;;;;;;41.97;15.47;;;;;;;;;;4999668;28;20204;-78
2022/01/14 14:04:27;;;;;;;38.90;15.97;;;;;;;;;;4998843;28;20244;-78
2022/01/14 14:07:04;;;;;;;38.30;15.53;;;;;;;;;;4999867;28;20204;-78
2022/01/14 14:09:37;;;;;;;44.97;15.13;;;;;;;;;;4997864;28;20290;-78
2022/01/14 14:12:37;;;;;;;37.27;14.23;;;;;;;;;;4993546;28;20232;-78
2022/01/14 14:18:00;;;;;;;40.23;14.07;;;;;;;;;;4995853;28;20235;-78
2022/01/14 14:20:27;;;;;;;37.40;14.50;;;;;;;;;;4991353;28;20348;-77
2022/01/14 14:22:54;;;;;;;42.50;14.07;;;;;;;;;;4990908;28;20839;-78
2022/01/14 14:25:25;;;;;;;39.53;13.50;;;;;;;;;;4999908;28;20232;-77
2022/01/14 14:28:00;;;;;;;34.53;13.07;;;;;;;;;;5002447;28;20216;-78
2022/01/14 14:30:29;;;;;;;37.03;12.63;;;;;;;;;;4998412;28;20204;-78
2022/01/14 14:32:56;;;;;;;35.77;13.27;;;;;;;;;;5001912;28;20251;-79
2022/01/14 14:35:23;;;;;;;31.43;12.33;;;;;;;;;;4999163;28;20235;-78
2022/01/14 14:37:54;;;;;;;37.33;14.13;;;;;;;;;;4996065;28;20272;-78
2022/01/14 14:40:30;;;;;;;43.33;14.73;;;;;;;;;;4995983;28;20227;-79
2022/01/14 14:42:58;;;;;;;45.27;14.30;;;;;;;;;;5001470;28;20233;-78
2022/01/14 14:45:27;;;;;;;36.63;13.17;;;;;;;;;;4999420;28;20212;-78
2022/01/14 14:47:54;;;;;;;39.30;13.50;;;;;;;;;;4995649;28;20291;-78
2022/01/14 14:50:28;;;;;;;54.60;21.23;;;;;;;;;;5001212;28;20292;-78